sensor_id;sensor_type;location;lat;lon;timestamp;temperature;humidity
74178;DHT22;62540;48.456;-4.456;2024-02-21T00:01:18;12.35;74.03
74178;DHT22;62540;48.456;-4.456;2024-02-21T00:03:45;12.38;74.16
74178;DHT22;62540;48.456;-4.456;2024-02-21T00:06:10;12.38;74.13
74178;DHT22;62540;48.456;-4.456;2024-02-21T00:08:36;12.34;74.20
74178;DHT22;62540;48.456;-4.456;2024-02-21T00:11:01;12.34;74.23
74178;DHT22;62540;48.456;-4.456;2024-02-21T00:13:26;12.32;74.29
74178;DHT22;62540;48.456;-4.456;2024-02-21T00:15:52;12.30;74.49
74178;DHT22;62540;48.456;-4.456;2024-02-21T00:18:17;12.28;74.84
74178;DHT22;62540;48.456;-4.456;2024-02-21T00:20:42;12.32;74.68
74178;DHT22;62540;48.456;-4.456;2024-02-21T00:23:08;12.34;74.74
74178;DHT22;62540;48.456;-4.456;2024-02-21T00:25:33;12.34;74.78
74178;DHT22;62540;48.456;-4.456;2024-02-21T00:27:59;12.32;74.71
74178;DHT22;62540;48.456;-4.456;2024-02-21T00:30:24;12.37;74.69
74178;DHT22;62540;48.456;-4.456;2024-02-21T00:32:50;12.28;74.71
74178;DHT22;62540;48.456;-4.456;2024-02-21T00:35:15;12.32;74.71
74178;DHT22;62540;48.456;-4.456;2024-02-21T00:37:40;12.40;74.68
74178;DHT22;62540;48.456;-4.456;2024-02-21T00:40:06;12.42;74.48
74178;DHT22;62540;48.456;-4.456;2024-02-21T00:42:31;12.38;74.54
74178;DHT22;62540;48.456;-4.456;2024-02-21T00:44:57;12.44;74.49
74178;DHT22;62540;48.456;-4.456;2024-02-21T00:47:23;12.45;74.48
74178;DHT22;62540;48.456;-4.456;2024-02-21T00:49:48;12.44;74.48
74178;DHT22;62540;48.456;-4.456;2024-02-21T00:52:13;12.41;74.71
74178;DHT22;62540;48.456;-4.456;2024-02-21T00:54:39;12.41;74.92
74178;DHT22;62540;48.456;-4.456;2024-02-21T00:57:04;12.41;74.86
74178;DHT22;62540;48.456;-4.456;2024-02-21T00:59:30;12.46;74.84
74178;DHT22;62540;48.456;-4.456;2024-02-21T01:01:55;12.44;74.89
74178;DHT22;62540;48.456;-4.456;2024-02-21T01:04:21;12.48;74.86
74178;DHT22;62540;48.456;-4.456;2024-02-21T01:06:46;12.49;74.86
74178;DHT22;62540;48.456;-4.456;2024-02-21T01:09:11;12.48;74.85
74178;DHT22;62540;48.456;-4.456;2024-02-21T01:11:37;12.51;74.80
74178;DHT22;62540;48.456;-4.456;2024-02-21T01:14:02;12.56;74.71
74178;DHT22;62540;48.456;-4.456;2024-02-21T01:16:28;12.51;74.77
74178;DHT22;62540;48.456;-4.456;2024-02-21T01:18:53;12.51;74.81
74178;DHT22;62540;48.456;-4.456;2024-02-21T01:21:19;12.49;74.80
74178;DHT22;62540;48.456;-4.456;2024-02-21T01:23:44;12.52;74.81
74178;DHT22;62540;48.456;-4.456;2024-02-21T01:26:09;12.55;74.93
74178;DHT22;62540;48.456;-4.456;2024-02-21T01:28:38;12.53;75.06
74178;DHT22;62540;48.456;-4.456;2024-02-21T01:31:03;12.46;74.96
74178;DHT22;62540;48.456;-4.456;2024-02-21T01:33:29;12.48;75.09
74178;DHT22;62540;48.456;-4.456;2024-02-21T01:36:00;12.42;75.27
74178;DHT22;62540;48.456;-4.456;2024-02-21T01:38:26;12.34;75.36
74178;DHT22;62540;48.456;-4.456;2024-02-21T01:40:51;12.41;75.31
74178;DHT22;62540;48.456;-4.456;2024-02-21T01:43:20;12.45;75.14
74178;DHT22;62540;48.456;-4.456;2024-02-21T01:45:50;12.42;75.28
74178;DHT22;62540;48.456;-4.456;2024-02-21T01:48:19;12.41;75.37
74178;DHT22;62540;48.456;-4.456;2024-02-21T01:50:46;12.37;75.47
74178;DHT22;62540;48.456;-4.456;2024-02-21T01:53:13;12.45;75.33
74178;DHT22;62540;48.456;-4.456;2024-02-21T01:55:45;12.45;75.12
74178;DHT22;62540;48.456;-4.456;2024-02-21T01:58:12;12.41;75.05
74178;DHT22;62540;48.456;-4.456;2024-02-21T02:00:41;12.41;75.15
74178;DHT22;62540;48.456;-4.456;2024-02-21T02:03:11;12.42;75.24
74178;DHT22;62540;48.456;-4.456;2024-02-21T02:05:43;12.45;75.19
74178;DHT22;62540;48.456;-4.456;2024-02-21T02:08:08;12.48;75.02
74178;DHT22;62540;48.456;-4.456;2024-02-21T02:10:34;12.44;75.21
74178;DHT22;62540;48.456;-4.456;2024-02-21T02:13:00;12.48;75.13
74178;DHT22;62540;48.456;-4.456;2024-02-21T02:15:26;12.51;75.16
74178;DHT22;62540;48.456;-4.456;2024-02-21T02:17:51;12.49;75.19
74178;DHT22;62540;48.456;-4.456;2024-02-21T02:20:16;12.52;75.05
74178;DHT22;62540;48.456;-4.456;2024-02-21T02:22:43;12.51;75.10
74178;DHT22;62540;48.456;-4.456;2024-02-21T02:25:08;12.44;75.27
74178;DHT22;62540;48.456;-4.456;2024-02-21T02:27:41;12.42;75.40
74178;DHT22;62540;48.456;-4.456;2024-02-21T02:30:08;12.45;75.42
74178;DHT22;62540;48.456;-4.456;2024-02-21T02:32:34;12.46;75.44
74178;DHT22;62540;48.456;-4.456;2024-02-21T02:34:59;12.42;75.53
74178;DHT22;62540;48.456;-4.456;2024-02-21T02:37:24;12.44;75.63
74178;DHT22;62540;48.456;-4.456;2024-02-21T02:39:50;12.42;75.69
74178;DHT22;62540;48.456;-4.456;2024-02-21T02:42:15;12.46;75.72
74178;DHT22;62540;48.456;-4.456;2024-02-21T02:44:40;12.48;75.73
74178;DHT22;62540;48.456;-4.456;2024-02-21T02:47:06;12.53;75.70
74178;DHT22;62540;48.456;-4.456;2024-02-21T02:49:31;12.49;75.81
74178;DHT22;62540;48.456;-4.456;2024-02-21T02:51:57;12.55;75.75
74178;DHT22;62540;48.456;-4.456;2024-02-21T02:54:22;12.52;75.73
74178;DHT22;62540;48.456;-4.456;2024-02-21T02:56:47;12.52;75.87
74178;DHT22;62540;48.456;-4.456;2024-02-21T02:59:14;12.51;75.77
74178;DHT22;62540;48.456;-4.456;2024-02-21T03:01:40;12.53;75.80
74178;DHT22;62540;48.456;-4.456;2024-02-21T03:04:05;12.55;75.76
74178;DHT22;62540;48.456;-4.456;2024-02-21T03:06:30;12.53;76.03
74178;DHT22;62540;48.456;-4.456;2024-02-21T03:08:56;12.52;75.94
74178;DHT22;62540;48.456;-4.456;2024-02-21T03:11:21;12.53;75.89
74178;DHT22;62540;48.456;-4.456;2024-02-21T03:13:54;12.56;75.78
74178;DHT22;62540;48.456;-4.456;2024-02-21T03:16:19;12.59;75.81
74178;DHT22;62540;48.456;-4.456;2024-02-21T03:18:45;12.62;75.68
74178;DHT22;62540;48.456;-4.456;2024-02-21T03:21:10;12.62;75.69
74178;DHT22;62540;48.456;-4.456;2024-02-21T03:23:35;12.58;75.82
74178;DHT22;62540;48.456;-4.456;2024-02-21T03:26:01;12.59;75.88
74178;DHT22;62540;48.456;-4.456;2024-02-21T03:28:27;12.56;75.83
74178;DHT22;62540;48.456;-4.456;2024-02-21T03:30:52;12.58;75.82
74178;DHT22;62540;48.456;-4.456;2024-02-21T03:33:18;12.59;75.82
74178;DHT22;62540;48.456;-4.456;2024-02-21T03:35:45;12.62;75.74
74178;DHT22;62540;48.456;-4.456;2024-02-21T03:38:10;12.56;75.94
74178;DHT22;62540;48.456;-4.456;2024-02-21T03:40:35;12.58;75.91
74178;DHT22;62540;48.456;-4.456;2024-02-21T03:43:01;12.58;75.96
74178;DHT22;62540;48.456;-4.456;2024-02-21T03:45:26;12.55;76.14
74178;DHT22;62540;48.456;-4.456;2024-02-21T03:47:52;12.51;76.32
74178;DHT22;62540;48.456;-4.456;2024-02-21T03:50:17;12.53;76.32
74178;DHT22;62540;48.456;-4.456;2024-02-21T03:52:42;12.59;76.20
74178;DHT22;62540;48.456;-4.456;2024-02-21T03:55:08;12.62;76.14
74178;DHT22;62540;48.456;-4.456;2024-02-21T03:57:33;12.58;76.30
74178;DHT22;62540;48.456;-4.456;2024-02-21T03:59:59;12.56;76.28
74178;DHT22;62540;48.456;-4.456;2024-02-21T04:02:24;12.53;76.50
74178;DHT22;62540;48.456;-4.456;2024-02-21T04:04:49;12.55;76.73
74178;DHT22;62540;48.456;-4.456;2024-02-21T04:07:15;12.52;76.79
74178;DHT22;62540;48.456;-4.456;2024-02-21T04:09:40;12.52;77.00
74178;DHT22;62540;48.456;-4.456;2024-02-21T04:12:08;12.55;76.98
74178;DHT22;62540;48.456;-4.456;2024-02-21T04:14:37;12.55;77.25
74178;DHT22;62540;48.456;-4.456;2024-02-21T04:17:02;12.56;77.29
74178;DHT22;62540;48.456;-4.456;2024-02-21T04:19:28;12.53;77.50
74178;DHT22;62540;48.456;-4.456;2024-02-21T04:21:53;12.51;77.94
74178;DHT22;62540;48.456;-4.456;2024-02-21T04:24:19;12.51;77.95
74178;DHT22;62540;48.456;-4.456;2024-02-21T04:26:44;12.49;77.99
74178;DHT22;62540;48.456;-4.456;2024-02-21T04:29:11;12.52;77.76
74178;DHT22;62540;48.456;-4.456;2024-02-21T04:31:36;12.48;78.48
74178;DHT22;62540;48.456;-4.456;2024-02-21T04:34:01;12.42;78.73
74178;DHT22;62540;48.456;-4.456;2024-02-21T04:36:28;12.40;78.76
74178;DHT22;62540;48.456;-4.456;2024-02-21T04:38:53;12.37;79.22
74178;DHT22;62540;48.456;-4.456;2024-02-21T04:41:18;12.32;79.31
74178;DHT22;62540;48.456;-4.456;2024-02-21T04:43:46;12.35;79.32
74178;DHT22;62540;48.456;-4.456;2024-02-21T04:46:12;12.35;79.45
74178;DHT22;62540;48.456;-4.456;2024-02-21T04:48:37;12.34;79.43
74178;DHT22;62540;48.456;-4.456;2024-02-21T04:51:03;12.28;79.70
74178;DHT22;62540;48.456;-4.456;2024-02-21T04:53:29;12.25;79.91
74178;DHT22;62540;48.456;-4.456;2024-02-21T04:55:54;12.27;79.98
74178;DHT22;62540;48.456;-4.456;2024-02-21T04:58:19;12.24;80.03
74178;DHT22;62540;48.456;-4.456;2024-02-21T05:00:45;12.25;80.08
74178;DHT22;62540;48.456;-4.456;2024-02-21T05:03:10;12.30;79.76
74178;DHT22;62540;48.456;-4.456;2024-02-21T05:05:36;12.25;80.09
74178;DHT22;62540;48.456;-4.456;2024-02-21T05:08:01;12.25;80.17
74178;DHT22;62540;48.456;-4.456;2024-02-21T05:10:27;12.24;80.23
74178;DHT22;62540;48.456;-4.456;2024-02-21T05:12:52;12.23;80.41
74178;DHT22;62540;48.456;-4.456;2024-02-21T05:15:17;12.27;80.12
74178;DHT22;62540;48.456;-4.456;2024-02-21T05:17:43;12.21;80.36
74178;DHT22;62540;48.456;-4.456;2024-02-21T05:20:09;12.11;79.96
74178;DHT22;62540;48.456;-4.456;2024-02-21T05:22:34;12.11;79.73
74178;DHT22;62540;48.456;-4.456;2024-02-21T05:24:59;12.07;79.84
74178;DHT22;62540;48.456;-4.456;2024-02-21T05:27:25;12.10;79.89
74178;DHT22;62540;48.456;-4.456;2024-02-21T05:29:50;12.07;79.91
74178;DHT22;62540;48.456;-4.456;2024-02-21T05:32:15;12.13;79.89
74178;DHT22;62540;48.456;-4.456;2024-02-21T05:34:41;12.11;79.64
74178;DHT22;62540;48.456;-4.456;2024-02-21T05:37:06;12.01;79.25
74178;DHT22;62540;48.456;-4.456;2024-02-21T05:39:32;11.98;79.21
74178;DHT22;62540;48.456;-4.456;2024-02-21T05:41:58;12.03;79.13
74178;DHT22;62540;48.456;-4.456;2024-02-21T05:44:23;11.97;79.22
74178;DHT22;62540;48.456;-4.456;2024-02-21T05:46:48;11.97;79.27
74178;DHT22;62540;48.456;-4.456;2024-02-21T05:49:14;11.94;79.12
74178;DHT22;62540;48.456;-4.456;2024-02-21T05:51:39;11.94;79.02
74178;DHT22;62540;48.456;-4.456;2024-02-21T05:54:05;11.95;78.98
74178;DHT22;62540;48.456;-4.456;2024-02-21T05:56:30;12.00;79.04
74178;DHT22;62540;48.456;-4.456;2024-02-21T05:58:55;11.97;79.08
74178;DHT22;62540;48.456;-4.456;2024-02-21T06:01:21;11.94;79.08
74178;DHT22;62540;48.456;-4.456;2024-02-21T06:03:47;11.94;79.17
74178;DHT22;62540;48.456;-4.456;2024-02-21T06:06:12;11.93;79.29
74178;DHT22;62540;48.456;-4.456;2024-02-21T06:08:40;11.97;79.33
74178;DHT22;62540;48.456;-4.456;2024-02-21T06:11:05;11.97;79.26
74178;DHT22;62540;48.456;-4.456;2024-02-21T06:13:30;12.00;79.35
74178;DHT22;62540;48.456;-4.456;2024-02-21T06:15:56;12.00;79.49
74178;DHT22;62540;48.456;-4.456;2024-02-21T06:18:21;12.00;79.58
74178;DHT22;62540;48.456;-4.456;2024-02-21T06:20:47;12.00;79.77
74178;DHT22;62540;48.456;-4.456;2024-02-21T06:23:13;12.03;80.00
74178;DHT22;62540;48.456;-4.456;2024-02-21T06:25:38;12.00;80.14
74178;DHT22;62540;48.456;-4.456;2024-02-21T06:28:05;11.90;80.14
74178;DHT22;62540;48.456;-4.456;2024-02-21T06:30:30;11.91;80.09
74178;DHT22;62540;48.456;-4.456;2024-02-21T06:32:56;11.89;79.88
74178;DHT22;62540;48.456;-4.456;2024-02-21T06:35:21;11.91;79.78
74178;DHT22;62540;48.456;-4.456;2024-02-21T06:37:49;11.89;79.06
74178;DHT22;62540;48.456;-4.456;2024-02-21T06:40:20;11.79;78.66
74178;DHT22;62540;48.456;-4.456;2024-02-21T06:42:45;11.74;78.64
74178;DHT22;62540;48.456;-4.456;2024-02-21T06:45:11;11.74;78.79
74178;DHT22;62540;48.456;-4.456;2024-02-21T06:47:36;11.74;78.84
74178;DHT22;62540;48.456;-4.456;2024-02-21T06:50:02;11.74;78.91
74178;DHT22;62540;48.456;-4.456;2024-02-21T06:52:27;11.72;79.13
74178;DHT22;62540;48.456;-4.456;2024-02-21T06:54:53;11.70;79.22
74178;DHT22;62540;48.456;-4.456;2024-02-21T06:57:18;11.66;79.58
74178;DHT22;62540;48.456;-4.456;2024-02-21T06:59:44;11.66;79.86
74178;DHT22;62540;48.456;-4.456;2024-02-21T07:02:09;11.63;79.92
74178;DHT22;62540;48.456;-4.456;2024-02-21T07:04:34;11.62;80.15
74178;DHT22;62540;48.456;-4.456;2024-02-21T07:07:00;11.62;80.34
74178;DHT22;62540;48.456;-4.456;2024-02-21T07:09:26;11.61;80.65
74178;DHT22;62540;48.456;-4.456;2024-02-21T07:11:51;11.59;80.92
74178;DHT22;62540;48.456;-4.456;2024-02-21T07:14:18;11.56;80.85
74178;DHT22;62540;48.456;-4.456;2024-02-21T07:16:43;11.61;80.67
74178;DHT22;62540;48.456;-4.456;2024-02-21T07:19:09;11.58;80.75
74178;DHT22;62540;48.456;-4.456;2024-02-21T07:21:34;11.53;80.87
74178;DHT22;62540;48.456;-4.456;2024-02-21T07:23:59;11.59;80.70
74178;DHT22;62540;48.456;-4.456;2024-02-21T07:26:25;11.59;80.53
74178;DHT22;62540;48.456;-4.456;2024-02-21T07:28:50;11.61;80.69
74178;DHT22;62540;48.456;-4.456;2024-02-21T07:31:16;11.62;80.65
74178;DHT22;62540;48.456;-4.456;2024-02-21T07:33:41;11.58;81.28
74178;DHT22;62540;48.456;-4.456;2024-02-21T07:36:10;11.58;81.48
74178;DHT22;62540;48.456;-4.456;2024-02-21T07:38:36;11.56;81.68
74178;DHT22;62540;48.456;-4.456;2024-02-21T07:41:02;11.56;81.63
74178;DHT22;62540;48.456;-4.456;2024-02-21T07:43:29;11.58;81.48
74178;DHT22;62540;48.456;-4.456;2024-02-21T07:45:54;11.55;81.49
74178;DHT22;62540;48.456;-4.456;2024-02-21T07:48:21;11.55;81.49
74178;DHT22;62540;48.456;-4.456;2024-02-21T07:50:50;11.53;81.53
74178;DHT22;62540;48.456;-4.456;2024-02-21T07:53:15;11.52;81.44
74178;DHT22;62540;48.456;-4.456;2024-02-21T07:55:40;11.49;81.51
74178;DHT22;62540;48.456;-4.456;2024-02-21T07:58:06;11.47;81.58
74178;DHT22;62540;48.456;-4.456;2024-02-21T08:00:31;11.47;81.65
74178;DHT22;62540;48.456;-4.456;2024-02-21T08:02:57;11.51;81.51
74178;DHT22;62540;48.456;-4.456;2024-02-21T08:05:22;11.47;81.61
74178;DHT22;62540;48.456;-4.456;2024-02-21T08:07:48;11.46;81.72
74178;DHT22;62540;48.456;-4.456;2024-02-21T08:10:14;11.45;81.84
74178;DHT22;62540;48.456;-4.456;2024-02-21T08:12:40;11.47;82.16
74178;DHT22;62540;48.456;-4.456;2024-02-21T08:15:05;11.51;82.16
74178;DHT22;62540;48.456;-4.456;2024-02-21T08:17:33;11.51;82.18
74178;DHT22;62540;48.456;-4.456;2024-02-21T08:19:59;11.51;82.21
74178;DHT22;62540;48.456;-4.456;2024-02-21T08:22:24;11.52;82.28
74178;DHT22;62540;48.456;-4.456;2024-02-21T08:24:50;11.53;82.42
74178;DHT22;62540;48.456;-4.456;2024-02-21T08:27:15;11.51;82.34
74178;DHT22;62540;48.456;-4.456;2024-02-21T08:29:40;11.52;82.31
74178;DHT22;62540;48.456;-4.456;2024-02-21T08:32:06;11.55;82.06
74178;DHT22;62540;48.456;-4.456;2024-02-21T08:34:31;11.56;82.01
74178;DHT22;62540;48.456;-4.456;2024-02-21T08:36:59;11.55;82.30
74178;DHT22;62540;48.456;-4.456;2024-02-21T08:39:24;11.58;82.22
74178;DHT22;62540;48.456;-4.456;2024-02-21T08:41:50;11.65;82.02
74178;DHT22;62540;48.456;-4.456;2024-02-21T08:44:16;11.67;81.90
74178;DHT22;62540;48.456;-4.456;2024-02-21T08:46:41;11.69;81.82
74178;DHT22;62540;48.456;-4.456;2024-02-21T08:49:10;11.70;81.93
74178;DHT22;62540;48.456;-4.456;2024-02-21T08:51:35;11.70;81.82
74178;DHT22;62540;48.456;-4.456;2024-02-21T08:54:00;11.70;81.49
74178;DHT22;62540;48.456;-4.456;2024-02-21T08:56:26;11.69;81.74
74178;DHT22;62540;48.456;-4.456;2024-02-21T08:58:51;11.73;81.79
74178;DHT22;62540;48.456;-4.456;2024-02-21T09:01:17;11.80;81.86
74178;DHT22;62540;48.456;-4.456;2024-02-21T09:03:42;11.77;81.86
74178;DHT22;62540;48.456;-4.456;2024-02-21T09:06:10;11.76;82.04
74178;DHT22;62540;48.456;-4.456;2024-02-21T09:08:35;11.79;82.04
74178;DHT22;62540;48.456;-4.456;2024-02-21T09:11:01;11.77;82.27
74178;DHT22;62540;48.456;-4.456;2024-02-21T09:13:26;11.83;82.21
74178;DHT22;62540;48.456;-4.456;2024-02-21T09:15:52;11.83;82.11
74178;DHT22;62540;48.456;-4.456;2024-02-21T09:18:17;11.86;82.09
74178;DHT22;62540;48.456;-4.456;2024-02-21T09:20:43;11.91;81.98
74178;DHT22;62540;48.456;-4.456;2024-02-21T09:23:09;11.89;82.07
74178;DHT22;62540;48.456;-4.456;2024-02-21T09:25:34;11.86;82.28
74178;DHT22;62540;48.456;-4.456;2024-02-21T09:28:01;11.90;82.30
74178;DHT22;62540;48.456;-4.456;2024-02-21T09:30:27;11.91;82.39
74178;DHT22;62540;48.456;-4.456;2024-02-21T09:32:52;11.89;82.55
74178;DHT22;62540;48.456;-4.456;2024-02-21T09:35:18;11.97;82.80
74178;DHT22;62540;48.456;-4.456;2024-02-21T09:37:43;11.97;82.93
74178;DHT22;62540;48.456;-4.456;2024-02-21T09:40:09;12.00;82.95
74178;DHT22;62540;48.456;-4.456;2024-02-21T09:42:39;12.05;83.02
74178;DHT22;62540;48.456;-4.456;2024-02-21T09:45:08;12.08;82.92
74178;DHT22;62540;48.456;-4.456;2024-02-21T09:47:48;12.14;83.04
74178;DHT22;62540;48.456;-4.456;2024-02-21T09:50:17;12.23;82.94
74178;DHT22;62540;48.456;-4.456;2024-02-21T09:52:44;12.21;83.07
74178;DHT22;62540;48.456;-4.456;2024-02-21T09:55:10;12.24;83.08
74178;DHT22;62540;48.456;-4.456;2024-02-21T09:57:39;12.28;83.16
74178;DHT22;62540;48.456;-4.456;2024-02-21T10:00:06;12.31;83.45
74178;DHT22;62540;48.456;-4.456;2024-02-21T10:02:34;12.31;83.52
74178;DHT22;62540;48.456;-4.456;2024-02-21T10:05:00;12.31;83.77
74178;DHT22;62540;48.456;-4.456;2024-02-21T10:07:25;12.32;84.14
74178;DHT22;62540;48.456;-4.456;2024-02-21T10:10:03;12.38;84.14
74178;DHT22;62540;48.456;-4.456;2024-02-21T10:12:29;12.45;84.07
74178;DHT22;62540;48.456;-4.456;2024-02-21T10:15:04;12.52;83.97
74178;DHT22;62540;48.456;-4.456;2024-02-21T10:17:31;12.53;84.06
74178;DHT22;62540;48.456;-4.456;2024-02-21T10:20:09;12.59;84.03
74178;DHT22;62540;48.456;-4.456;2024-02-21T10:22:35;12.58;84.18
74178;DHT22;62540;48.456;-4.456;2024-02-21T10:25:11;12.61;84.16
74178;DHT22;62540;48.456;-4.456;2024-02-21T10:27:38;12.68;84.15
74178;DHT22;62540;48.456;-4.456;2024-02-21T10:30:12;12.66;84.18
74178;DHT22;62540;48.456;-4.456;2024-02-21T10:32:51;12.69;84.30
74178;DHT22;62540;48.456;-4.456;2024-02-21T10:37:59;12.75;84.49
74178;DHT22;62540;48.456;-4.456;2024-02-21T10:40:26;12.81;84.46
74178;DHT22;62540;48.456;-4.456;2024-02-21T10:42:59;12.89;84.57
74178;DHT22;62540;48.456;-4.456;2024-02-21T10:45:34;12.93;84.58
74178;DHT22;62540;48.456;-4.456;2024-02-21T10:48:15;12.96;84.54
74178;DHT22;62540;48.456;-4.456;2024-02-21T10:50:45;13.00;84.52
74178;DHT22;62540;48.456;-4.456;2024-02-21T10:53:44;13.04;84.59
74178;DHT22;62540;48.456;-4.456;2024-02-21T10:56:32;13.06;84.62
74178;DHT22;62540;48.456;-4.456;2024-02-21T10:59:03;13.10;84.63
74178;DHT22;62540;48.456;-4.456;2024-02-21T11:01:29;13.16;84.72
74178;DHT22;62540;48.456;-4.456;2024-02-21T11:03:58;13.17;84.67
74178;DHT22;62540;48.456;-4.456;2024-02-21T11:06:26;13.14;84.77
74178;DHT22;62540;48.456;-4.456;2024-02-21T11:11:28;13.27;84.77
74178;DHT22;62540;48.456;-4.456;2024-02-21T11:14:21;13.31;84.70
74178;DHT22;62540;48.456;-4.456;2024-02-21T11:16:47;13.30;84.88
74178;DHT22;62540;48.456;-4.456;2024-02-21T11:21:45;13.39;84.79
74178;DHT22;62540;48.456;-4.456;2024-02-21T11:24:10;13.40;84.65
74178;DHT22;62540;48.456;-4.456;2024-02-21T11:26:40;13.43;84.58
74178;DHT22;62540;48.456;-4.456;2024-02-21T11:29:07;13.41;84.79
74178;DHT22;62540;48.456;-4.456;2024-02-21T11:31:42;13.47;84.70
74178;DHT22;62540;48.456;-4.456;2024-02-21T11:34:11;13.41;84.87
74178;DHT22;62540;48.456;-4.456;2024-02-21T11:36:49;13.46;84.88
74178;DHT22;62540;48.456;-4.456;2024-02-21T11:41:58;13.51;84.82
74178;DHT22;62540;48.456;-4.456;2024-02-21T11:44:23;13.60;84.73
74178;DHT22;62540;48.456;-4.456;2024-02-21T11:46:49;13.65;84.62
74178;DHT22;62540;48.456;-4.456;2024-02-21T11:49:14;13.72;84.51
74178;DHT22;62540;48.456;-4.456;2024-02-21T11:51:39;13.71;84.49
74178;DHT22;62540;48.456;-4.456;2024-02-21T11:54:05;13.75;84.50
74178;DHT22;62540;48.456;-4.456;2024-02-21T11:56:31;13.77;84.43
74178;DHT22;62540;48.456;-4.456;2024-02-21T11:58:58;13.78;84.47
74178;DHT22;62540;48.456;-4.456;2024-02-21T12:01:24;13.86;84.42
74178;DHT22;62540;48.456;-4.456;2024-02-21T12:03:49;13.88;84.28
74178;DHT22;62540;48.456;-4.456;2024-02-21T12:06:16;13.85;84.41
74178;DHT22;62540;48.456;-4.456;2024-02-21T12:08:46;13.85;84.60
74178;DHT22;62540;48.456;-4.456;2024-02-21T12:11:22;13.88;84.62
74178;DHT22;62540;48.456;-4.456;2024-02-21T12:13:58;13.86;84.62
74178;DHT22;62540;48.456;-4.456;2024-02-21T12:16:26;13.95;84.47
74178;DHT22;62540;48.456;-4.456;2024-02-21T12:18:53;13.95;84.41
74178;DHT22;62540;48.456;-4.456;2024-02-21T12:21:18;13.98;84.47
74178;DHT22;62540;48.456;-4.456;2024-02-21T12:23:44;13.95;84.43
74178;DHT22;62540;48.456;-4.456;2024-02-21T12:26:09;14.04;84.45
74178;DHT22;62540;48.456;-4.456;2024-02-21T12:28:34;14.08;84.41
74178;DHT22;62540;48.456;-4.456;2024-02-21T12:31:00;14.09;84.32
74178;DHT22;62540;48.456;-4.456;2024-02-21T12:33:25;14.08;84.25
74178;DHT22;62540;48.456;-4.456;2024-02-21T12:35:51;14.10;84.27
74178;DHT22;62540;48.456;-4.456;2024-02-21T12:38:16;14.10;84.29
74178;DHT22;62540;48.456;-4.456;2024-02-21T12:40:43;14.12;84.30
74178;DHT22;62540;48.456;-4.456;2024-02-21T12:43:08;14.20;84.25
74178;DHT22;62540;48.456;-4.456;2024-02-21T12:45:50;14.26;84.13
74178;DHT22;62540;48.456;-4.456;2024-02-21T12:48:15;14.33;84.04
74178;DHT22;62540;48.456;-4.456;2024-02-21T12:50:48;14.36;83.89
74178;DHT22;62540;48.456;-4.456;2024-02-21T12:53:15;14.32;83.84
74178;DHT22;62540;48.456;-4.456;2024-02-21T12:55:41;14.39;83.82
74178;DHT22;62540;48.456;-4.456;2024-02-21T12:58:06;14.37;83.80
74178;DHT22;62540;48.456;-4.456;2024-02-21T13:00:32;14.39;83.69
74178;DHT22;62540;48.456;-4.456;2024-02-21T13:02:58;14.34;83.74
74178;DHT22;62540;48.456;-4.456;2024-02-21T13:05:23;14.34;83.78
74178;DHT22;62540;48.456;-4.456;2024-02-21T13:07:48;14.27;83.89
74178;DHT22;62540;48.456;-4.456;2024-02-21T13:10:14;14.32;83.99
74178;DHT22;62540;48.456;-4.456;2024-02-21T13:12:40;14.32;83.99
74178;DHT22;62540;48.456;-4.456;2024-02-21T13:15:05;14.29;83.99
74178;DHT22;62540;48.456;-4.456;2024-02-21T13:17:31;14.33;83.99
74178;DHT22;62540;48.456;-4.456;2024-02-21T13:19:57;14.36;83.93
74178;DHT22;62540;48.456;-4.456;2024-02-21T13:22:22;14.37;83.88
74178;DHT22;62540;48.456;-4.456;2024-02-21T13:24:51;14.41;83.96
74178;DHT22;62540;48.456;-4.456;2024-02-21T13:27:16;14.41;84.03
74178;DHT22;62540;48.456;-4.456;2024-02-21T13:29:41;14.46;83.99
74178;DHT22;62540;48.456;-4.456;2024-02-21T13:32:07;14.51;83.87
74178;DHT22;62540;48.456;-4.456;2024-02-21T13:34:32;14.56;83.88
74178;DHT22;62540;48.456;-4.456;2024-02-21T13:36:59;14.54;83.82
74178;DHT22;62540;48.456;-4.456;2024-02-21T13:39:25;14.54;83.73
74178;DHT22;62540;48.456;-4.456;2024-02-21T13:41:50;14.54;83.71
74178;DHT22;62540;48.456;-4.456;2024-02-21T13:44:16;14.47;83.74
74178;DHT22;62540;48.456;-4.456;2024-02-21T13:46:41;14.54;83.75
74178;DHT22;62540;48.456;-4.456;2024-02-21T13:49:06;14.57;83.78
74178;DHT22;62540;48.456;-4.456;2024-02-21T13:51:33;14.64;83.73
74178;DHT22;62540;48.456;-4.456;2024-02-21T13:54:02;14.61;83.73
74178;DHT22;62540;48.456;-4.456;2024-02-21T13:56:28;14.60;83.74
74178;DHT22;62540;48.456;-4.456;2024-02-21T13:58:53;14.61;83.77
74178;DHT22;62540;48.456;-4.456;2024-02-21T14:01:19;14.63;83.74
74178;DHT22;62540;48.456;-4.456;2024-02-21T14:03:44;14.66;83.72
74178;DHT22;62540;48.456;-4.456;2024-02-21T14:06:09;14.70;83.64
74178;DHT22;62540;48.456;-4.456;2024-02-21T14:08:35;14.61;83.72
74178;DHT22;62540;48.456;-4.456;2024-02-21T14:11:02;14.61;83.81
74178;DHT22;62540;48.456;-4.456;2024-02-21T14:13:27;14.64;83.78
74178;DHT22;62540;48.456;-4.456;2024-02-21T14:15:53;14.67;83.78
74178;DHT22;62540;48.456;-4.456;2024-02-21T14:18:19;14.73;83.74
74178;DHT22;62540;48.456;-4.456;2024-02-21T14:20:44;14.77;83.55
74178;DHT22;62540;48.456;-4.456;2024-02-21T14:23:12;14.78;83.52
74178;DHT22;62540;48.456;-4.456;2024-02-21T14:25:38;14.77;83.47
74178;DHT22;62540;48.456;-4.456;2024-02-21T14:28:04;14.77;83.39
74178;DHT22;62540;48.456;-4.456;2024-02-21T14:30:30;14.78;83.37
74178;DHT22;62540;48.456;-4.456;2024-02-21T14:32:55;14.83;83.45
74178;DHT22;62540;48.456;-4.456;2024-02-21T14:35:21;14.77;83.33
74178;DHT22;62540;48.456;-4.456;2024-02-21T14:37:47;14.68;83.50
74178;DHT22;62540;48.456;-4.456;2024-02-21T14:40:14;14.71;83.60
74178;DHT22;62540;48.456;-4.456;2024-02-21T14:42:39;14.78;83.58
74178;DHT22;62540;48.456;-4.456;2024-02-21T14:45:05;14.80;83.39
74178;DHT22;62540;48.456;-4.456;2024-02-21T14:47:32;14.81;83.33
74178;DHT22;62540;48.456;-4.456;2024-02-21T14:49:58;14.84;83.29
74178;DHT22;62540;48.456;-4.456;2024-02-21T14:52:23;14.87;83.26
74178;DHT22;62540;48.456;-4.456;2024-02-21T14:54:52;14.84;83.08
74178;DHT22;62540;48.456;-4.456;2024-02-21T14:57:18;14.83;83.16
74178;DHT22;62540;48.456;-4.456;2024-02-21T14:59:45;14.87;83.10
74178;DHT22;62540;48.456;-4.456;2024-02-21T15:02:10;14.87;83.00
74178;DHT22;62540;48.456;-4.456;2024-02-21T15:04:36;14.84;83.00
74178;DHT22;62540;48.456;-4.456;2024-02-21T15:07:01;14.81;83.07
74178;DHT22;62540;48.456;-4.456;2024-02-21T15:09:27;14.78;83.21
74178;DHT22;62540;48.456;-4.456;2024-02-21T15:11:53;14.83;83.24
74178;DHT22;62540;48.456;-4.456;2024-02-21T15:14:18;14.83;83.15
74178;DHT22;62540;48.456;-4.456;2024-02-21T15:16:45;14.83;83.08
74178;DHT22;62540;48.456;-4.456;2024-02-21T15:19:10;14.87;83.06
74178;DHT22;62540;48.456;-4.456;2024-02-21T15:21:36;14.80;83.06